sensor_id;sensor_type;location;lat;lon;timestamp;P1;durP1;ratioP1;P2;durP2;ratioP2
26536;SDS011;14204;51.262;5.488;2023-07-13T00:01:52;4.57;;;1.88;;
26536;SDS011;14204;51.262;5.488;2023-07-13T00:04:19;4.35;;;1.73;;
26536;SDS011;14204;51.262;5.488;2023-07-13T00:06:46;5.72;;;2.38;;
26536;SDS011;14204;51.262;5.488;2023-07-13T00:09:12;3.80;;;1.60;;
26536;SDS011;14204;51.262;5.488;2023-07-13T00:11:39;6.63;;;1.90;;
26536;SDS011;14204;51.262;5.488;2023-07-13T00:14:06;8.23;;;2.08;;
26536;SDS011;14204;51.262;5.488;2023-07-13T00:16:33;5.93;;;1.65;;
26536;SDS011;14204;51.262;5.488;2023-07-13T00:19:00;4.60;;;2.08;;
26536;SDS011;14204;51.262;5.488;2023-07-13T00:21:26;6.88;;;1.83;;
26536;SDS011;14204;51.262;5.488;2023-07-13T00:23:52;7.40;;;2.22;;
26536;SDS011;14204;51.262;5.488;2023-07-13T00:26:18;6.13;;;2.03;;
26536;SDS011;14204;51.262;5.488;2023-07-13T00:28:44;4.20;;;1.83;;
26536;SDS011;14204;51.262;5.488;2023-07-13T00:31:10;7.93;;;2.25;;
26536;SDS011;14204;51.262;5.488;2023-07-13T00:33:37;4.45;;;2.00;;
26536;SDS011;14204;51.262;5.488;2023-07-13T00:36:03;5.55;;;1.58;;
26536;SDS011;14204;51.262;5.488;2023-07-13T00:38:29;7.35;;;2.33;;
26536;SDS011;14204;51.262;5.488;2023-07-13T00:40:55;7.03;;;1.98;;
26536;SDS011;14204;51.262;5.488;2023-07-13T00:43:22;5.00;;;1.95;;
26536;SDS011;14204;51.262;5.488;2023-07-13T00:48:17;4.28;;;1.73;;
26536;SDS011;14204;51.262;5.488;2023-07-13T00:50:46;4.38;;;2.33;;
26536;SDS011;14204;51.262;5.488;2023-07-13T00:53:19;6.60;;;1.90;;
26536;SDS011;14204;51.262;5.488;2023-07-13T00:55:45;7.22;;;1.63;;
26536;SDS011;14204;51.262;5.488;2023-07-13T00:58:13;5.53;;;2.10;;
26536;SDS011;14204;51.262;5.488;2023-07-13T01:00:40;6.55;;;2.00;;
26536;SDS011;14204;51.262;5.488;2023-07-13T01:03:06;7.13;;;1.60;;
26536;SDS011;14204;51.262;5.488;2023-07-13T01:05:33;7.70;;;2.08;;
26536;SDS011;14204;51.262;5.488;2023-07-13T01:08:00;5.13;;;1.77;;
26536;SDS011;14204;51.262;5.488;2023-07-13T01:10:27;9.50;;;1.83;;
26536;SDS011;14204;51.262;5.488;2023-07-13T01:12:53;6.95;;;2.33;;
26536;SDS011;14204;51.262;5.488;2023-07-13T01:18:13;3.50;;;1.95;;
26536;SDS011;14204;51.262;5.488;2023-07-13T01:20:54;8.50;;;2.03;;
26536;SDS011;14204;51.262;5.488;2023-07-13T01:23:20;7.72;;;2.33;;
26536;SDS011;14204;51.262;5.488;2023-07-13T01:25:47;2.67;;;1.52;;
26536;SDS011;14204;51.262;5.488;2023-07-13T01:28:13;5.80;;;2.22;;
26536;SDS011;14204;51.262;5.488;2023-07-13T01:30:39;6.97;;;2.22;;
26536;SDS011;14204;51.262;5.488;2023-07-13T01:33:06;5.20;;;1.70;;
26536;SDS011;14204;51.262;5.488;2023-07-13T01:35:33;7.32;;;2.10;;
26536;SDS011;14204;51.262;5.488;2023-07-13T01:37:59;7.00;;;1.95;;
26536;SDS011;14204;51.262;5.488;2023-07-13T01:40:26;8.18;;;2.00;;
26536;SDS011;14204;51.262;5.488;2023-07-13T01:42:52;10.23;;;2.40;;
26536;SDS011;14204;51.262;5.488;2023-07-13T01:45:18;4.22;;;1.92;;
26536;SDS011;14204;51.262;5.488;2023-07-13T01:47:43;6.25;;;1.92;;
26536;SDS011;14204;51.262;5.488;2023-07-13T01:50:09;8.30;;;2.38;;
26536;SDS011;14204;51.262;5.488;2023-07-13T01:52:35;7.15;;;2.30;;
26536;SDS011;14204;51.262;5.488;2023-07-13T01:55:01;5.15;;;2.45;;
26536;SDS011;14204;51.262;5.488;2023-07-13T01:57:27;8.00;;;2.00;;
26536;SDS011;14204;51.262;5.488;2023-07-13T01:59:53;7.30;;;2.20;;
26536;SDS011;14204;51.262;5.488;2023-07-13T02:02:19;10.02;;;1.95;;
26536;SDS011;14204;51.262;5.488;2023-07-13T02:04:45;8.30;;;2.10;;
26536;SDS011;14204;51.262;5.488;2023-07-13T02:07:10;4.55;;;2.22;;
26536;SDS011;14204;51.262;5.488;2023-07-13T02:09:36;5.53;;;2.47;;
26536;SDS011;14204;51.262;5.488;2023-07-13T02:12:02;6.75;;;2.50;;
26536;SDS011;14204;51.262;5.488;2023-07-13T02:14:28;5.18;;;2.45;;
26536;SDS011;14204;51.262;5.488;2023-07-13T02:16:53;8.85;;;2.17;;
26536;SDS011;14204;51.262;5.488;2023-07-13T02:19:19;10.90;;;2.97;;
26536;SDS011;14204;51.262;5.488;2023-07-13T02:21:45;9.57;;;2.45;;
26536;SDS011;14204;51.262;5.488;2023-07-13T02:24:11;9.75;;;2.40;;
26536;SDS011;14204;51.262;5.488;2023-07-13T02:26:42;6.25;;;2.22;;
26536;SDS011;14204;51.262;5.488;2023-07-13T02:29:08;6.82;;;2.20;;
26536;SDS011;14204;51.262;5.488;2023-07-13T02:31:34;5.80;;;1.90;;
26536;SDS011;14204;51.262;5.488;2023-07-13T02:34:00;7.07;;;2.70;;
26536;SDS011;14204;51.262;5.488;2023-07-13T02:36:27;7.13;;;2.33;;
26536;SDS011;14204;51.262;5.488;2023-07-13T02:38:53;5.75;;;2.10;;
26536;SDS011;14204;51.262;5.488;2023-07-13T02:41:19;7.43;;;2.72;;
26536;SDS011;14204;51.262;5.488;2023-07-13T02:43:45;8.48;;;2.53;;
26536;SDS011;14204;51.262;5.488;2023-07-13T02:46:10;6.90;;;2.50;;
26536;SDS011;14204;51.262;5.488;2023-07-13T02:48:37;6.47;;;2.55;;
26536;SDS011;14204;51.262;5.488;2023-07-13T02:51:04;4.80;;;2.22;;
26536;SDS011;14204;51.262;5.488;2023-07-13T02:53:29;4.82;;;2.22;;
26536;SDS011;14204;51.262;5.488;2023-07-13T02:55:55;6.32;;;2.40;;
26536;SDS011;14204;51.262;5.488;2023-07-13T02:58:21;7.05;;;2.28;;
26536;SDS011;14204;51.262;5.488;2023-07-13T03:00:47;7.47;;;2.47;;
26536;SDS011;14204;51.262;5.488;2023-07-13T03:03:15;11.02;;;3.00;;
26536;SDS011;14204;51.262;5.488;2023-07-13T03:05:42;13.32;;;2.33;;
26536;SDS011;14204;51.262;5.488;2023-07-13T03:08:10;8.23;;;2.20;;
26536;SDS011;14204;51.262;5.488;2023-07-13T03:10:36;10.52;;;2.97;;
26536;SDS011;14204;51.262;5.488;2023-07-13T03:13:02;8.43;;;2.58;;
26536;SDS011;14204;51.262;5.488;2023-07-13T03:15:28;11.43;;;3.38;;
26536;SDS011;14204;51.262;5.488;2023-07-13T03:17:53;6.88;;;2.42;;
26536;SDS011;14204;51.262;5.488;2023-07-13T03:20:19;8.52;;;2.83;;
26536;SDS011;14204;51.262;5.488;2023-07-13T03:22:45;10.45;;;2.67;;
26536;SDS011;14204;51.262;5.488;2023-07-13T03:25:11;7.53;;;2.67;;
26536;SDS011;14204;51.262;5.488;2023-07-13T03:27:37;6.70;;;2.42;;
26536;SDS011;14204;51.262;5.488;2023-07-13T03:30:04;8.35;;;3.38;;
26536;SDS011;14204;51.262;5.488;2023-07-13T03:32:31;8.50;;;2.65;;
26536;SDS011;14204;51.262;5.488;2023-07-13T03:34:57;7.38;;;2.80;;
26536;SDS011;14204;51.262;5.488;2023-07-13T03:37:22;8.20;;;2.70;;
26536;SDS011;14204;51.262;5.488;2023-07-13T03:39:48;10.25;;;3.63;;
26536;SDS011;14204;51.262;5.488;2023-07-13T03:42:14;14.32;;;3.33;;
26536;SDS011;14204;51.262;5.488;2023-07-13T03:44:40;14.70;;;3.28;;
26536;SDS011;14204;51.262;5.488;2023-07-13T03:47:06;12.40;;;3.85;;
26536;SDS011;14204;51.262;5.488;2023-07-13T03:49:33;20.88;;;4.00;;
26536;SDS011;14204;51.262;5.488;2023-07-13T03:51:59;7.38;;;3.03;;
26536;SDS011;14204;51.262;5.488;2023-07-13T03:54:25;11.57;;;3.25;;
26536;SDS011;14204;51.262;5.488;2023-07-13T03:56:51;14.80;;;3.90;;
26536;SDS011;14204;51.262;5.488;2023-07-13T03:59:16;10.52;;;3.50;;
26536;SDS011;14204;51.262;5.488;2023-07-13T04:01:43;13.00;;;3.83;;
26536;SDS011;14204;51.262;5.488;2023-07-13T04:04:09;13.48;;;4.13;;
26536;SDS011;14204;51.262;5.488;2023-07-13T04:06:34;15.55;;;3.88;;
26536;SDS011;14204;51.262;5.488;2023-07-13T04:09:00;13.38;;;4.15;;
26536;SDS011;14204;51.262;5.488;2023-07-13T04:11:30;11.63;;;3.10;;
26536;SDS011;14204;51.262;5.488;2023-07-13T04:13:57;8.38;;;3.17;;
26536;SDS011;14204;51.262;5.488;2023-07-13T04:16:22;6.97;;;3.08;;
26536;SDS011;14204;51.262;5.488;2023-07-13T04:18:49;11.57;;;3.30;;
26536;SDS011;14204;51.262;5.488;2023-07-13T04:21:15;13.40;;;3.30;;
26536;SDS011;14204;51.262;5.488;2023-07-13T04:23:41;10.57;;;3.30;;
26536;SDS011;14204;51.262;5.488;2023-07-13T04:26:07;11.10;;;3.15;;
26536;SDS011;14204;51.262;5.488;2023-07-13T04:28:34;9.02;;;2.95;;
26536;SDS011;14204;51.262;5.488;2023-07-13T04:31:00;8.77;;;3.45;;
26536;SDS011;14204;51.262;5.488;2023-07-13T04:33:26;9.35;;;3.55;;
26536;SDS011;14204;51.262;5.488;2023-07-13T04:35:52;11.43;;;3.60;;
26536;SDS011;14204;51.262;5.488;2023-07-13T04:38:25;12.18;;;4.00;;
26536;SDS011;14204;51.262;5.488;2023-07-13T04:40:57;9.45;;;3.67;;
26536;SDS011;14204;51.262;5.488;2023-07-13T04:43:26;13.63;;;3.70;;
26536;SDS011;14204;51.262;5.488;2023-07-13T04:45:52;13.63;;;3.45;;
26536;SDS011;14204;51.262;5.488;2023-07-13T04:48:18;8.07;;;3.10;;
26536;SDS011;14204;51.262;5.488;2023-07-13T04:50:45;13.20;;;3.60;;
26536;SDS011;14204;51.262;5.488;2023-07-13T04:53:11;10.27;;;3.75;;
26536;SDS011;14204;51.262;5.488;2023-07-13T04:55:37;13.27;;;3.97;;
26536;SDS011;14204;51.262;5.488;2023-07-13T04:58:03;15.30;;;4.47;;
26536;SDS011;14204;51.262;5.488;2023-07-13T05:00:29;12.60;;;4.07;;
26536;SDS011;14204;51.262;5.488;2023-07-13T05:02:55;13.07;;;3.70;;
26536;SDS011;14204;51.262;5.488;2023-07-13T05:05:23;14.75;;;3.92;;
26536;SDS011;14204;51.262;5.488;2023-07-13T05:07:50;10.07;;;4.50;;
26536;SDS011;14204;51.262;5.488;2023-07-13T05:10:16;13.30;;;4.20;;
26536;SDS011;14204;51.262;5.488;2023-07-13T05:12:42;12.35;;;4.80;;
26536;SDS011;14204;51.262;5.488;2023-07-13T05:15:07;14.18;;;4.03;;
26536;SDS011;14204;51.262;5.488;2023-07-13T05:17:33;14.77;;;4.05;;
26536;SDS011;14204;51.262;5.488;2023-07-13T05:19:59;15.85;;;4.20;;
26536;SDS011;14204;51.262;5.488;2023-07-13T05:22:25;15.27;;;4.00;;
26536;SDS011;14204;51.262;5.488;2023-07-13T05:24:50;14.75;;;4.10;;
26536;SDS011;14204;51.262;5.488;2023-07-13T05:27:16;12.93;;;4.28;;
26536;SDS011;14204;51.262;5.488;2023-07-13T05:29:42;10.13;;;3.50;;
26536;SDS011;14204;51.262;5.488;2023-07-13T05:32:07;10.18;;;3.28;;
26536;SDS011;14204;51.262;5.488;2023-07-13T05:34:33;14.30;;;4.00;;
26536;SDS011;14204;51.262;5.488;2023-07-13T05:36:58;11.88;;;3.65;;
26536;SDS011;14204;51.262;5.488;2023-07-13T05:39:24;11.52;;;3.85;;
26536;SDS011;14204;51.262;5.488;2023-07-13T05:41:51;13.18;;;3.38;;
26536;SDS011;14204;51.262;5.488;2023-07-13T05:44:16;12.38;;;3.75;;
26536;SDS011;14204;51.262;5.488;2023-07-13T05:46:43;16.85;;;4.25;;
26536;SDS011;14204;51.262;5.488;2023-07-13T05:49:09;9.13;;;3.35;;
26536;SDS011;14204;51.262;5.488;2023-07-13T05:51:35;14.43;;;4.28;;
26536;SDS011;14204;51.262;5.488;2023-07-13T05:54:00;18.35;;;4.70;;
26536;SDS011;14204;51.262;5.488;2023-07-13T05:56:26;9.38;;;4.00;;
26536;SDS011;14204;51.262;5.488;2023-07-13T05:58:51;12.57;;;4.22;;
26536;SDS011;14204;51.262;5.488;2023-07-13T06:01:17;16.75;;;4.28;;
26536;SDS011;14204;51.262;5.488;2023-07-13T06:03:45;15.73;;;4.60;;
26536;SDS011;14204;51.262;5.488;2023-07-13T06:06:11;12.98;;;4.70;;
26536;SDS011;14204;51.262;5.488;2023-07-13T06:08:37;16.13;;;4.75;;
26536;SDS011;14204;51.262;5.488;2023-07-13T06:11:22;20.08;;;5.30;;
26536;SDS011;14204;51.262;5.488;2023-07-13T06:13:49;14.85;;;4.57;;
26536;SDS011;14204;51.262;5.488;2023-07-13T06:16:15;18.48;;;4.88;;
26536;SDS011;14204;51.262;5.488;2023-07-13T06:18:42;16.33;;;5.35;;
26536;SDS011;14204;51.262;5.488;2023-07-13T06:21:18;26.08;;;6.00;;
26536;SDS011;14204;51.262;5.488;2023-07-13T06:23:46;17.50;;;6.30;;
26536;SDS011;14204;51.262;5.488;2023-07-13T06:26:15;24.05;;;6.55;;
26536;SDS011;14204;51.262;5.488;2023-07-13T06:28:42;34.47;;;7.07;;
26536;SDS011;14204;51.262;5.488;2023-07-13T06:31:09;19.48;;;5.82;;
26536;SDS011;14204;51.262;5.488;2023-07-13T06:33:36;22.02;;;5.90;;
26536;SDS011;14204;51.262;5.488;2023-07-13T06:36:02;20.10;;;5.60;;
26536;SDS011;14204;51.262;5.488;2023-07-13T06:38:29;20.17;;;6.05;;
26536;SDS011;14204;51.262;5.488;2023-07-13T06:40:55;25.38;;;6.85;;
26536;SDS011;14204;51.262;5.488;2023-07-13T06:43:21;19.33;;;6.15;;
26536;SDS011;14204;51.262;5.488;2023-07-13T06:45:48;25.52;;;6.93;;
26536;SDS011;14204;51.262;5.488;2023-07-13T06:48:15;19.33;;;5.78;;
26536;SDS011;14204;51.262;5.488;2023-07-13T06:50:42;23.80;;;6.22;;
26536;SDS011;14204;51.262;5.488;2023-07-13T06:53:08;18.25;;;5.47;;
26536;SDS011;14204;51.262;5.488;2023-07-13T06:55:34;18.42;;;6.20;;
26536;SDS011;14204;51.262;5.488;2023-07-13T06:58:00;20.35;;;5.72;;
26536;SDS011;14204;51.262;5.488;2023-07-13T07:00:26;24.40;;;6.40;;
26536;SDS011;14204;51.262;5.488;2023-07-13T07:02:51;16.95;;;6.07;;
26536;SDS011;14204;51.262;5.488;2023-07-13T07:05:17;26.88;;;5.82;;
26536;SDS011;14204;51.262;5.488;2023-07-13T07:07:42;19.85;;;5.63;;
26536;SDS011;14204;51.262;5.488;2023-07-13T07:10:08;16.67;;;5.68;;
26536;SDS011;14204;51.262;5.488;2023-07-13T07:12:34;18.95;;;5.45;;
26536;SDS011;14204;51.262;5.488;2023-07-13T07:15:00;18.55;;;5.93;;
26536;SDS011;14204;51.262;5.488;2023-07-13T07:17:25;18.67;;;5.65;;
26536;SDS011;14204;51.262;5.488;2023-07-13T07:19:52;14.90;;;5.72;;
26536;SDS011;14204;51.262;5.488;2023-07-13T07:22:19;17.13;;;5.68;;
26536;SDS011;14204;51.262;5.488;2023-07-13T07:24:45;14.02;;;5.15;;
26536;SDS011;14204;51.262;5.488;2023-07-13T07:27:11;21.75;;;6.78;;
26536;SDS011;14204;51.262;5.488;2023-07-13T07:29:37;17.45;;;5.80;;
26536;SDS011;14204;51.262;5.488;2023-07-13T07:32:02;15.45;;;5.32;;
26536;SDS011;14204;51.262;5.488;2023-07-13T07:34:29;17.27;;;5.40;;
26536;SDS011;14204;51.262;5.488;2023-07-13T07:36:58;18.08;;;5.28;;
26536;SDS011;14204;51.262;5.488;2023-07-13T07:39:25;14.57;;;4.80;;
26536;SDS011;14204;51.262;5.488;2023-07-13T07:41:51;13.00;;;5.03;;
26536;SDS011;14204;51.262;5.488;2023-07-13T07:44:17;17.83;;;5.80;;
26536;SDS011;14204;51.262;5.488;2023-07-13T07:46:43;15.73;;;5.22;;
26536;SDS011;14204;51.262;5.488;2023-07-13T07:49:08;16.70;;;5.18;;
26536;SDS011;14204;51.262;5.488;2023-07-13T07:51:34;17.58;;;5.57;;
26536;SDS011;14204;51.262;5.488;2023-07-13T07:54:00;15.18;;;5.40;;
26536;SDS011;14204;51.262;5.488;2023-07-13T07:56:25;11.40;;;4.43;;
26536;SDS011;14204;51.262;5.488;2023-07-13T07:58:51;16.77;;;5.25;;
26536;SDS011;14204;51.262;5.488;2023-07-13T08:01:17;13.82;;;5.40;;
26536;SDS011;14204;51.262;5.488;2023-07-13T08:03:42;13.73;;;4.85;;
26536;SDS011;14204;51.262;5.488;2023-07-13T08:06:08;14.20;;;4.88;;
26536;SDS011;14204;51.262;5.488;2023-07-13T08:08:34;12.52;;;4.35;;
26536;SDS011;14204;51.262;5.488;2023-07-13T08:11:04;17.50;;;5.45;;
26536;SDS011;14204;51.262;5.488;2023-07-13T08:13:30;14.73;;;5.32;;
26536;SDS011;14204;51.262;5.488;2023-07-13T08:15:56;15.52;;;4.68;;
26536;SDS011;14204;51.262;5.488;2023-07-13T08:18:22;15.57;;;4.80;;
26536;SDS011;14204;51.262;5.488;2023-07-13T08:20:47;11.10;;;4.60;;
26536;SDS011;14204;51.262;5.488;2023-07-13T08:23:13;13.57;;;5.00;;
26536;SDS011;14204;51.262;5.488;2023-07-13T08:25:39;16.55;;;5.28;;
26536;SDS011;14204;51.262;5.488;2023-07-13T08:28:04;11.38;;;4.55;;
26536;SDS011;14204;51.262;5.488;2023-07-13T08:30:30;12.80;;;4.50;;
26536;SDS011;14204;51.262;5.488;2023-07-13T08:32:56;13.05;;;3.72;;
26536;SDS011;14204;51.262;5.488;2023-07-13T08:35:22;12.70;;;3.92;;
26536;SDS011;14204;51.262;5.488;2023-07-13T08:37:48;14.60;;;4.80;;
26536;SDS011;14204;51.262;5.488;2023-07-13T08:40:13;12.38;;;4.00;;
26536;SDS011;14204;51.262;5.488;2023-07-13T08:42:42;14.02;;;4.15;;
26536;SDS011;14204;51.262;5.488;2023-07-13T08:45:17;13.35;;;4.13;;
26536;SDS011;14204;51.262;5.488;2023-07-13T08:50:30;11.75;;;4.57;;
26536;SDS011;14204;51.262;5.488;2023-07-13T08:53:00;12.55;;;4.18;;
26536;SDS011;14204;51.262;5.488;2023-07-13T08:55:33;12.27;;;4.07;;
26536;SDS011;14204;51.262;5.488;2023-07-13T08:58:09;10.75;;;4.35;;
26536;SDS011;14204;51.262;5.488;2023-07-13T09:03:06;14.07;;;4.72;;
26536;SDS011;14204;51.262;5.488;2023-07-13T09:05:45;15.48;;;4.55;;
26536;SDS011;14204;51.262;5.488;2023-07-13T09:14:00;13.70;;;3.90;;
26536;SDS011;14204;51.262;5.488;2023-07-13T09:16:47;13.35;;;4.30;;
26536;SDS011;14204;51.262;5.488;2023-07-13T09:19:19;12.43;;;4.05;;
26536;SDS011;14204;51.262;5.488;2023-07-13T09:21:48;13.05;;;3.42;;
26536;SDS011;14204;51.262;5.488;2023-07-13T09:26:53;12.25;;;3.80;;
26536;SDS011;14204;51.262;5.488;2023-07-13T09:29:23;10.00;;;4.00;;
26536;SDS011;14204;51.262;5.488;2023-07-13T09:31:54;9.55;;;4.00;;
26536;SDS011;14204;51.262;5.488;2023-07-13T09:34:23;9.13;;;3.47;;
26536;SDS011;14204;51.262;5.488;2023-07-13T09:36:51;6.80;;;2.83;;
26536;SDS011;14204;51.262;5.488;2023-07-13T09:42:18;9.80;;;3.20;;
26536;SDS011;14204;51.262;5.488;2023-07-13T09:44:51;8.52;;;2.88;;
26536;SDS011;14204;51.262;5.488;2023-07-13T09:47:23;8.40;;;3.17;;
26536;SDS011;14204;51.262;5.488;2023-07-13T09:49:58;4.18;;;2.70;;
26536;SDS011;14204;51.262;5.488;2023-07-13T09:52:26;7.47;;;3.00;;
26536;SDS011;14204;51.262;5.488;2023-07-13T09:54:53;7.78;;;3.10;;
26536;SDS011;14204;51.262;5.488;2023-07-13T09:57:25;6.63;;;3.35;;
26536;SDS011;14204;51.262;5.488;2023-07-13T09:59:53;9.60;;;3.05;;
26536;SDS011;14204;51.262;5.488;2023-07-13T10:05:10;13.05;;;2.97;;
26536;SDS011;14204;51.262;5.488;2023-07-13T10:07:39;8.77;;;3.05;;
26536;SDS011;14204;51.262;5.488;2023-07-13T10:10:16;10.55;;;2.90;;
26536;SDS011;14204;51.262;5.488;2023-07-13T10:12:46;4.70;;;2.75;;
26536;SDS011;14204;51.262;5.488;2023-07-13T10:15:17;7.25;;;3.42;;
26536;SDS011;14204;51.262;5.488;2023-07-13T10:17:54;6.35;;;2.78;;
26536;SDS011;14204;51.262;5.488;2023-07-13T10:20:23;9.25;;;2.67;;
26536;SDS011;14204;51.262;5.488;2023-07-13T10:22:51;6.45;;;2.80;;
26536;SDS011;14204;51.262;5.488;2023-07-13T10:25:23;12.85;;;3.35;;
26536;SDS011;14204;51.262;5.488;2023-07-13T10:27:51;9.23;;;3.05;;
26536;SDS011;14204;51.262;5.488;2023-07-13T10:30:30;7.38;;;3.03;;
26536;SDS011;14204;51.262;5.488;2023-07-13T10:33:00;9.35;;;2.58;;
26536;SDS011;14204;51.262;5.488;2023-07-13T10:35:27;9.30;;;2.95;;
26536;SDS011;14204;51.262;5.488;2023-07-13T10:37:57;3.75;;;2.30;;
26536;SDS011;14204;51.262;5.488;2023-07-13T10:40:41;7.45;;;2.95;;
26536;SDS011;14204;51.262;5.488;2023-07-13T10:43:25;5.07;;;2.17;;
26536;SDS011;14204;51.262;5.488;2023-07-13T10:45:55;8.13;;;2.50;;
26536;SDS011;14204;51.262;5.488;2023-07-13T10:48:22;8.43;;;2.67;;
26536;SDS011;14204;51.262;5.488;2023-07-13T10:50:49;10.60;;;3.20;;
26536;SDS011;14204;51.262;5.488;2023-07-13T10:53:30;12.52;;;3.97;;
26536;SDS011;14204;51.262;5.488;2023-07-13T10:56:02;7.80;;;3.28;;
26536;SDS011;14204;51.262;5.488;2023-07-13T11:08:57;9.23;;;3.72;;
26536;SDS011;14204;51.262;5.488;2023-07-13T11:14:04;4.35;;;3.20;;
26536;SDS011;14204;51.262;5.488;2023-07-13T11:16:50;6.80;;;2.83;;
26536;SDS011;14204;51.262;5.488;2023-07-13T11:24:51;7.32;;;3.10;;
26536;SDS011;14204;51.262;5.488;2023-07-13T11:27:46;9.68;;;3.28;;
26536;SDS011;14204;51.262;5.488;2023-07-13T11:35:36;9.85;;;3.30;;
26536;SDS011;14204;51.262;5.488;2023-07-13T11:38:08;6.55;;;3.30;;
26536;SDS011;14204;51.262;5.488;2023-07-13T11:40:40;5.63;;;3.33;;
26536;SDS011;14204;51.262;5.488;2023-07-13T11:43:11;8.63;;;3.08;;
26536;SDS011;14204;51.262;5.488;2023-07-13T11:45:39;9.80;;;3.23;;
26536;SDS011;14204;51.262;5.488;2023-07-13T11:48:16;7.63;;;2.83;;
26536;SDS011;14204;51.262;5.488;2023-07-13T11:50:57;10.65;;;2.53;;
26536;SDS011;14204;51.262;5.488;2023-07-13T11:53:27;6.03;;;3.00;;
26536;SDS011;14204;51.262;5.488;2023-07-13T11:55:56;7.80;;;3.22;;
26536;SDS011;14204;51.262;5.488;2023-07-13T11:58:23;4.50;;;2.33;;
26536;SDS011;14204;51.262;5.488;2023-07-13T12:00:50;6.00;;;2.60;;
26536;SDS011;14204;51.262;5.488;2023-07-13T12:03:20;8.90;;;2.45;;
26536;SDS011;14204;51.262;5.488;2023-07-13T12:05:56;5.55;;;2.60;;
26536;SDS011;14204;51.262;5.488;2023-07-13T12:08:41;8.52;;;3.15;;
26536;SDS011;14204;51.262;5.488;2023-07-13T12:11:13;6.80;;;2.60;;
26536;SDS011;14204;51.262;5.488;2023-07-13T12:13:43;6.68;;;2.70;;
26536;SDS011;14204;51.262;5.488;2023-07-13T12:16:25;7.18;;;2.30;;
26536;SDS011;14204;51.262;5.488;2023-07-13T12:18:57;4.90;;;2.72;;
26536;SDS011;14204;51.262;5.488;2023-07-13T12:21:36;8.07;;;2.58;;
26536;SDS011;14204;51.262;5.488;2023-07-13T12:24:03;5.45;;;2.72;;
26536;SDS011;14204;51.262;5.488;2023-07-13T12:26:36;8.85;;;3.05;;
26536;SDS011;14204;51.262;5.488;2023-07-13T12:29:04;8.05;;;2.78;;
26536;SDS011;14204;51.262;5.488;2023-07-13T12:31:36;5.55;;;2.40;;
26536;SDS011;14204;51.262;5.488;2023-07-13T12:34:10;4.68;;;2.55;;
26536;SDS011;14204;51.262;5.488;2023-07-13T12:36:41;6.10;;;2.53;;
26536;SDS011;14204;51.262;5.488;2023-07-13T12:39:17;6.38;;;2.47;;
26536;SDS011;14204;51.262;5.488;2023-07-13T12:41:44;5.22;;;2.33;;
26536;SDS011;14204;51.262;5.488;2023-07-13T12:44:17;7.75;;;2.55;;
26536;SDS011;14204;51.262;5.488;2023-07-13T12:46:58;7.30;;;2.30;;
26536;SDS011;14204;51.262;5.488;2023-07-13T12:49:30;6.75;;;2.53;;
26536;SDS011;14204;51.262;5.488;2023-07-13T12:52:01;7.97;;;2.97;;
26536;SDS011;14204;51.262;5.488;2023-07-13T12:54:29;5.03;;;2.00;;
26536;SDS011;14204;51.262;5.488;2023-07-13T12:56:56;4.75;;;2.58;;
26536;SDS011;14204;51.262;5.488;2023-07-13T12:59:23;6.90;;;2.53;;
26536;SDS011;14204;51.262;5.488;2023-07-13T13:01:54;8.45;;;2.47;;
26536;SDS011;14204;51.262;5.488;2023-07-13T13:04:19;7.85;;;2.80;;
26536;SDS011;14204;51.262;5.488;2023-07-13T13:06:46;7.22;;;2.95;;
26536;SDS011;14204;51.262;5.488;2023-07-13T13:09:14;6.55;;;2.53;;
26536;SDS011;14204;51.262;5.488;2023-07-13T13:11:41;7.25;;;3.10;;
26536;SDS011;14204;51.262;5.488;2023-07-13T13:14:07;6.38;;;2.88;;
26536;SDS011;14204;51.262;5.488;2023-07-13T13:21:47;7.80;;;2.72;;
26536;SDS011;14204;51.262;5.488;2023-07-13T13:24:25;5.10;;;2.47;;
26536;SDS011;14204;51.262;5.488;2023-07-13T13:26:53;4.65;;;2.40;;
26536;SDS011;14204;51.262;5.488;2023-07-13T13:29:22;5.20;;;3.50;;
26536;SDS011;14204;51.262;5.488;2023-07-13T13:31:50;6.78;;;2.40;;
26536;SDS011;14204;51.262;5.488;2023-07-13T13:34:17;4.28;;;2.38;;
26536;SDS011;14204;51.262;5.488;2023-07-13T13:36:43;3.75;;;2.13;;
26536;SDS011;14204;51.262;5.488;2023-07-13T13:39:16;5.22;;;2.00;;
26536;SDS011;14204;51.262;5.488;2023-07-13T13:41:43;5.13;;;2.05;;
26536;SDS011;14204;51.262;5.488;2023-07-13T13:44:09;2.83;;;2.20;;
26536;SDS011;14204;51.262;5.488;2023-07-13T13:46:35;5.45;;;2.38;;
26536;SDS011;14204;51.262;5.488;2023-07-13T13:49:01;3.78;;;2.42;;
26536;SDS011;14204;51.262;5.488;2023-07-13T13:51:27;4.53;;;2.60;;
26536;SDS011;14204;51.262;5.488;2023-07-13T13:53:54;5.47;;;2.78;;
26536;SDS011;14204;51.262;5.488;2023-07-13T13:56:20;5.88;;;2.83;;
26536;SDS011;14204;51.262;5.488;2023-07-13T13:58:45;5.75;;;2.65;;
26536;SDS011;14204;51.262;5.488;2023-07-13T14:01:18;5.05;;;2.97;;
26536;SDS011;14204;51.262;5.488;2023-07-13T14:03:45;4.10;;;2.65;;
26536;SDS011;14204;51.262;5.488;2023-07-13T14:06:14;5.00;;;2.60;;
26536;SDS011;14204;51.262;5.488;2023-07-13T14:08:40;7.90;;;3.00;;
26536;SDS011;14204;51.262;5.488;2023-07-13T14:11:07;5.18;;;2.38;;
26536;SDS011;14204;51.262;5.488;2023-07-13T14:16:18;5.82;;;3.10;;
26536;SDS011;14204;51.262;5.488;2023-07-13T14:18:46;5.22;;;2.72;;
26536;SDS011;14204;51.262;5.488;2023-07-13T14:21:13;6.22;;;2.85;;
26536;SDS011;14204;51.262;5.488;2023-07-13T14:23:40;8.55;;;2.47;;
26536;SDS011;14204;51.262;5.488;2023-07-13T14:26:10;5.00;;;2.88;;
26536;SDS011;14204;51.262;5.488;2023-07-13T14:28:38;8.48;;;3.53;;
26536;SDS011;14204;51.262;5.488;2023-07-13T14:31:10;3.75;;;2.30;;
26536;SDS011;14204;51.262;5.488;2023-07-13T14:33:37;4.20;;;2.40;;
26536;SDS011;14204;51.262;5.488;2023-07-13T14:36:05;3.00;;;2.38;;
26536;SDS011;14204;51.262;5.488;2023-07-13T14:38:59;4.53;;;2.10;;
26536;SDS011;14204;51.262;5.488;2023-07-13T14:41:43;4.40;;;2.53;;
26536;SDS011;14204;51.262;5.488;2023-07-13T14:44:12;4.78;;;2.33;;
26536;SDS011;14204;51.262;5.488;2023-07-13T14:46:39;6.05;;;2.75;;
26536;SDS011;14204;51.262;5.488;2023-07-13T14:49:16;4.93;;;2.22;;
26536;SDS011;14204;51.262;5.488;2023-07-13T14:51:58;4.43;;;1.92;;
26536;SDS011;14204;51.262;5.488;2023-07-13T14:54:36;5.90;;;2.53;;
26536;SDS011;14204;51.262;5.488;2023-07-13T14:57:08;8.57;;;2.50;;
26536;SDS011;14204;51.262;5.488;2023-07-13T14:59:35;3.75;;;2.08;;
26536;SDS011;14204;51.262;5.488;2023-07-13T15:02:01;4.75;;;1.92;;
26536;SDS011;14204;51.262;5.488;2023-07-13T15:04:27;6.30;;;2.35;;
26536;SDS011;14204;51.262;5.488;2023-07-13T15:07:00;3.65;;;2.15;;
26536;SDS011;14204;51.262;5.488;2023-07-13T15:09:27;3.58;;;2.30;;
26536;SDS011;14204;51.262;5.488;2023-07-13T15:11:57;4.40;;;1.67;;
26536;SDS011;14204;51.262;5.488;2023-07-13T15:14:24;5.90;;;2.30;;
26536;SDS011;14204;51.262;5.488;2023-07-13T15:16:50;3.28;;;2.00;;
26536;SDS011;14204;51.262;5.488;2023-07-13T15:19:18;2.85;;;2.15;;
26536;SDS011;14204;51.262;5.488;2023-07-13T15:21:45;2.75;;;1.73;;
26536;SDS011;14204;51.262;5.488;2023-07-13T15:24:12;4.07;;;1.98;;
26536;SDS011;14204;51.262;5.488;2023-07-13T15:26:38;4.20;;;1.95;;
26536;SDS011;14204;51.262;5.488;2023-07-13T15:29:05;3.75;;;1.90;;
26536;SDS011;14204;51.262;5.488;2023-07-13T15:31:32;3.15;;;1.77;;
26536;SDS011;14204;51.262;5.488;2023-07-13T15:33:59;2.63;;;1.83;;
26536;SDS011;14204;51.262;5.488;2023-07-13T15:36:25;3.97;;;2.17;;
26536;SDS011;14204;51.262;5.488;2023-07-13T15:38:52;3.90;;;2.08;;
26536;SDS011;14204;51.262;5.488;2023-07-13T15:41:26;3.15;;;2.35;;
26536;SDS011;14204;51.262;5.488;2023-07-13T15:43:55;3.25;;;2.22;;
26536;SDS011;14204;51.262;5.488;2023-07-13T15:46:23;5.35;;;2.13;;